sensor_id;sensor_type;location;lat;lon;timestamp;temperature;humidity
33508;DHT22;25568;37.410;-122.096;2022-07-04T05:30:42;22.60;68.10
33508;DHT22;25568;37.410;-122.096;2022-07-04T05:33:10;22.60;68.70
33508;DHT22;25568;37.410;-122.096;2022-07-04T05:35:38;22.60;68.80
33508;DHT22;25568;37.410;-122.096;2022-07-04T05:38:06;22.60;68.70
33508;DHT22;25568;37.410;-122.096;2022-07-04T05:40:34;22.60;68.70
33508;DHT22;25568;37.410;-122.096;2022-07-04T05:43:02;22.60;68.70
33508;DHT22;25568;37.410;-122.096;2022-07-04T05:45:31;22.60;68.70
33508;DHT22;25568;37.410;-122.096;2022-07-04T05:48:01;22.60;68.70
33508;DHT22;25568;37.410;-122.096;2022-07-04T05:50:29;22.60;68.70
33508;DHT22;25568;37.410;-122.096;2022-07-04T05:52:57;22.60;68.70
33508;DHT22;25568;37.410;-122.096;2022-07-04T05:55:26;22.60;68.70
33508;DHT22;25568;37.410;-122.096;2022-07-04T05:57:54;22.60;68.80
33508;DHT22;25568;37.410;-122.096;2022-07-04T06:00:22;22.60;68.70
33508;DHT22;25568;37.410;-122.096;2022-07-04T06:02:50;22.60;68.70
33508;DHT22;25568;37.410;-122.096;2022-07-04T06:05:20;22.60;68.70
33508;DHT22;25568;37.410;-122.096;2022-07-04T06:07:48;22.60;68.70
33508;DHT22;25568;37.410;-122.096;2022-07-04T06:10:16;22.50;68.70
33508;DHT22;25568;37.410;-122.096;2022-07-04T06:12:45;22.50;68.70
33508;DHT22;25568;37.410;-122.096;2022-07-04T06:15:13;22.50;68.70
33508;DHT22;25568;37.410;-122.096;2022-07-04T06:17:41;22.50;68.70
33508;DHT22;25568;37.410;-122.096;2022-07-04T06:20:09;22.50;68.70
33508;DHT22;25568;37.410;-122.096;2022-07-04T06:22:43;22.50;68.70
33508;DHT22;25568;37.410;-122.096;2022-07-04T06:25:12;22.50;68.70
33508;DHT22;25568;37.410;-122.096;2022-07-04T06:27:40;22.50;68.70
33508;DHT22;25568;37.410;-122.096;2022-07-04T06:30:09;22.50;68.70
33508;DHT22;25568;37.410;-122.096;2022-07-04T06:32:44;22.50;68.70
33508;DHT22;25568;37.410;-122.096;2022-07-04T06:35:13;22.50;68.70
33508;DHT22;25568;37.410;-122.096;2022-07-04T06:37:59;22.50;68.70
33508;DHT22;25568;37.410;-122.096;2022-07-04T06:40:27;22.50;68.70
33508;DHT22;25568;37.410;-122.096;2022-07-04T06:42:56;22.40;68.60
33508;DHT22;25568;37.410;-122.096;2022-07-04T06:45:24;22.50;68.70
33508;DHT22;25568;37.410;-122.096;2022-07-04T06:47:52;22.40;68.60
33508;DHT22;25568;37.410;-122.096;2022-07-04T06:50:20;22.40;68.60
33508;DHT22;25568;37.410;-122.096;2022-07-04T06:52:49;22.40;68.70
33508;DHT22;25568;37.410;-122.096;2022-07-04T06:55:19;22.40;68.60
33508;DHT22;25568;37.410;-122.096;2022-07-04T06:57:47;22.40;68.70
33508;DHT22;25568;37.410;-122.096;2022-07-04T07:00:15;22.40;68.70
33508;DHT22;25568;37.410;-122.096;2022-07-04T07:02:43;22.40;68.60
33508;DHT22;25568;37.410;-122.096;2022-07-04T07:05:12;22.40;68.60
33508;DHT22;25568;37.410;-122.096;2022-07-04T07:07:40;22.40;68.70
33508;DHT22;25568;37.410;-122.096;2022-07-04T07:10:08;22.40;68.70
33508;DHT22;25568;37.410;-122.096;2022-07-04T07:12:38;22.30;68.60
33508;DHT22;25568;37.410;-122.096;2022-07-04T07:15:06;22.40;68.70
33508;DHT22;25568;37.410;-122.096;2022-07-04T07:17:35;22.30;68.60
33508;DHT22;25568;37.410;-122.096;2022-07-04T07:20:03;22.30;68.60
33508;DHT22;25568;37.410;-122.096;2022-07-04T07:22:31;22.30;68.60
33508;DHT22;25568;37.410;-122.096;2022-07-04T07:24:59;22.30;68.60
33508;DHT22;25568;37.410;-122.096;2022-07-04T07:27:28;22.30;68.60
33508;DHT22;25568;37.410;-122.096;2022-07-04T07:29:57;22.30;68.60
33508;DHT22;25568;37.410;-122.096;2022-07-04T07:32:25;22.30;68.60
33508;DHT22;25568;37.410;-122.096;2022-07-04T07:34:54;22.30;68.60
33508;DHT22;25568;37.410;-122.096;2022-07-04T07:37:22;22.30;68.60
33508;DHT22;25568;37.410;-122.096;2022-07-04T07:39:50;22.30;68.60
33508;DHT22;25568;37.410;-122.096;2022-07-04T07:42:18;22.30;68.60
33508;DHT22;25568;37.410;-122.096;2022-07-04T07:44:46;22.30;68.60
33508;DHT22;25568;37.410;-122.096;2022-07-04T07:47:16;22.20;68.60
33508;DHT22;25568;37.410;-122.096;2022-07-04T07:49:44;22.20;68.60
33508;DHT22;25568;37.410;-122.096;2022-07-04T07:52:13;22.20;68.60
33508;DHT22;25568;37.410;-122.096;2022-07-04T07:54:42;22.20;68.60
33508;DHT22;25568;37.410;-122.096;2022-07-04T07:57:10;22.20;68.50
33508;DHT22;25568;37.410;-122.096;2022-07-04T07:59:38;22.20;68.60
33508;DHT22;25568;37.410;-122.096;2022-07-04T08:02:06;22.20;68.70
33508;DHT22;25568;37.410;-122.096;2022-07-04T08:04:36;22.20;68.60
33508;DHT22;25568;37.410;-122.096;2022-07-04T08:07:05;22.20;68.60
33508;DHT22;25568;37.410;-122.096;2022-07-04T08:09:33;22.20;68.60
33508;DHT22;25568;37.410;-122.096;2022-07-04T08:12:02;22.20;68.60
33508;DHT22;25568;37.410;-122.096;2022-07-04T08:14:30;22.20;68.60
33508;DHT22;25568;37.410;-122.096;2022-07-04T08:16:59;22.20;69.40
33508;DHT22;25568;37.410;-122.096;2022-07-04T08:19:27;22.10;68.60
33508;DHT22;25568;37.410;-122.096;2022-07-04T08:21:56;22.10;68.60
33508;DHT22;25568;37.410;-122.096;2022-07-04T08:24:25;22.10;68.60
33508;DHT22;25568;37.410;-122.096;2022-07-04T08:26:53;22.10;68.60
33508;DHT22;25568;37.410;-122.096;2022-07-04T08:29:21;22.10;68.60
33508;DHT22;25568;37.410;-122.096;2022-07-04T08:31:49;22.10;68.60
33508;DHT22;25568;37.410;-122.096;2022-07-04T08:34:18;22.00;68.50
33508;DHT22;25568;37.410;-122.096;2022-07-04T08:36:46;22.00;68.50
33508;DHT22;25568;37.410;-122.096;2022-07-04T08:39:16;22.00;68.60
33508;DHT22;25568;37.410;-122.096;2022-07-04T08:41:44;22.00;68.60
33508;DHT22;25568;37.410;-122.096;2022-07-04T08:44:12;22.00;68.60
33508;DHT22;25568;37.410;-122.096;2022-07-04T08:46:41;22.00;68.60
33508;DHT22;25568;37.410;-122.096;2022-07-04T08:49:10;22.00;68.60
33508;DHT22;25568;37.410;-122.096;2022-07-04T08:51:41;22.00;68.50
33508;DHT22;25568;37.410;-122.096;2022-07-04T08:54:11;22.00;68.60
33508;DHT22;25568;37.410;-122.096;2022-07-04T08:56:59;22.00;68.60
33508;DHT22;25568;37.410;-122.096;2022-07-04T08:59:43;21.90;68.50
33508;DHT22;25568;37.410;-122.096;2022-07-04T09:02:16;21.90;68.60
33508;DHT22;25568;37.410;-122.096;2022-07-04T09:04:44;21.90;68.60
33508;DHT22;25568;37.410;-122.096;2022-07-04T09:07:13;21.90;68.60
33508;DHT22;25568;37.410;-122.096;2022-07-04T09:09:41;21.90;68.60
33508;DHT22;25568;37.410;-122.096;2022-07-04T09:12:12;21.90;68.60
33508;DHT22;25568;37.410;-122.096;2022-07-04T09:14:40;21.90;68.60
33508;DHT22;25568;37.410;-122.096;2022-07-04T09:17:08;21.90;68.60
33508;DHT22;25568;37.410;-122.096;2022-07-04T09:19:36;21.90;68.60
33508;DHT22;25568;37.410;-122.096;2022-07-04T09:22:07;21.90;68.60
33508;DHT22;25568;37.410;-122.096;2022-07-04T09:24:47;21.80;68.50
33508;DHT22;25568;37.410;-122.096;2022-07-04T09:27:33;21.80;68.50
33508;DHT22;25568;37.410;-122.096;2022-07-04T09:30:01;21.80;68.50
33508;DHT22;25568;37.410;-122.096;2022-07-04T09:32:33;21.80;68.50
33508;DHT22;25568;37.410;-122.096;2022-07-04T09:35:02;21.80;68.60
33508;DHT22;25568;37.410;-122.096;2022-07-04T09:37:34;21.80;68.50
33508;DHT22;25568;37.410;-122.096;2022-07-04T09:40:04;21.80;68.60
33508;DHT22;25568;37.410;-122.096;2022-07-04T09:42:37;21.80;68.60
33508;DHT22;25568;37.410;-122.096;2022-07-04T09:45:07;21.80;68.50
33508;DHT22;25568;37.410;-122.096;2022-07-04T09:47:35;21.70;68.40
33508;DHT22;25568;37.410;-122.096;2022-07-04T09:50:04;21.70;68.50
33508;DHT22;25568;37.410;-122.096;2022-07-04T09:52:34;21.70;68.50
33508;DHT22;25568;37.410;-122.096;2022-07-04T09:55:11;21.70;68.50
33508;DHT22;25568;37.410;-122.096;2022-07-04T09:57:45;21.70;68.50
33508;DHT22;25568;37.410;-122.096;2022-07-04T10:00:17;21.70;68.50
33508;DHT22;25568;37.410;-122.096;2022-07-04T10:02:46;21.70;68.50
33508;DHT22;25568;37.410;-122.096;2022-07-04T10:05:18;21.70;68.60
33508;DHT22;25568;37.410;-122.096;2022-07-04T10:07:47;21.70;68.50
33508;DHT22;25568;37.410;-122.096;2022-07-04T10:10:24;21.60;68.40
33508;DHT22;25568;37.410;-122.096;2022-07-04T10:12:55;21.60;68.40
33508;DHT22;25568;37.410;-122.096;2022-07-04T10:15:23;21.60;68.40
33508;DHT22;25568;37.410;-122.096;2022-07-04T10:17:52;21.60;69.20
33508;DHT22;25568;37.410;-122.096;2022-07-04T10:20:20;21.60;68.40
33508;DHT22;25568;37.410;-122.096;2022-07-04T10:22:48;21.60;68.40
33508;DHT22;25568;37.410;-122.096;2022-07-04T10:25:17;21.60;68.40
33508;DHT22;25568;37.410;-122.096;2022-07-04T10:27:45;21.60;68.40
33508;DHT22;25568;37.410;-122.096;2022-07-04T10:30:17;21.60;68.40
33508;DHT22;25568;37.410;-122.096;2022-07-04T10:32:47;21.60;68.40
33508;DHT22;25568;37.410;-122.096;2022-07-04T10:35:16;21.60;68.40
33508;DHT22;25568;37.410;-122.096;2022-07-04T10:38:00;21.60;68.40
33508;DHT22;25568;37.410;-122.096;2022-07-04T10:40:41;21.50;68.40
33508;DHT22;25568;37.410;-122.096;2022-07-04T10:46:07;21.50;68.40
33508;DHT22;25568;37.410;-122.096;2022-07-04T10:48:50;21.50;68.40
33508;DHT22;25568;37.410;-122.096;2022-07-04T10:51:30;21.50;68.40
33508;DHT22;25568;37.410;-122.096;2022-07-04T10:53:59;21.50;68.40
33508;DHT22;25568;37.410;-122.096;2022-07-04T10:56:35;21.50;68.40
33508;DHT22;25568;37.410;-122.096;2022-07-04T10:59:07;21.50;68.40
33508;DHT22;25568;37.410;-122.096;2022-07-04T11:01:37;21.50;68.40
33508;DHT22;25568;37.410;-122.096;2022-07-04T11:04:06;21.40;68.30
33508;DHT22;25568;37.410;-122.096;2022-07-04T11:06:51;21.50;68.40
33508;DHT22;25568;37.410;-122.096;2022-07-04T11:09:21;21.40;68.30
33508;DHT22;25568;37.410;-122.096;2022-07-04T11:11:50;21.40;68.30
33508;DHT22;25568;37.410;-122.096;2022-07-04T11:14:31;21.40;68.40
33508;DHT22;25568;37.410;-122.096;2022-07-04T11:17:01;21.40;68.40
33508;DHT22;25568;37.410;-122.096;2022-07-04T11:19:29;21.40;68.30
33508;DHT22;25568;37.410;-122.096;2022-07-04T11:21:57;21.40;68.30
33508;DHT22;25568;37.410;-122.096;2022-07-04T11:24:25;21.40;68.30
33508;DHT22;25568;37.410;-122.096;2022-07-04T11:26:54;21.40;68.30
33508;DHT22;25568;37.410;-122.096;2022-07-04T11:29:22;21.40;68.40
33508;DHT22;25568;37.410;-122.096;2022-07-04T11:31:50;21.30;68.20
33508;DHT22;25568;37.410;-122.096;2022-07-04T11:34:20;21.30;68.20
33508;DHT22;25568;37.410;-122.096;2022-07-04T11:36:48;21.30;68.20
33508;DHT22;25568;37.410;-122.096;2022-07-04T11:39:17;21.30;68.20
33508;DHT22;25568;37.410;-122.096;2022-07-04T11:41:47;21.30;68.20
33508;DHT22;25568;37.410;-122.096;2022-07-04T11:44:32;21.30;68.30
33508;DHT22;25568;37.410;-122.096;2022-07-04T11:47:18;21.30;68.20
33508;DHT22;25568;37.410;-122.096;2022-07-04T11:49:49;21.30;68.20
33508;DHT22;25568;37.410;-122.096;2022-07-04T11:52:18;21.30;68.30
33508;DHT22;25568;37.410;-122.096;2022-07-04T11:54:47;21.30;68.30
33508;DHT22;25568;37.410;-122.096;2022-07-04T11:57:17;21.30;68.30
33508;DHT22;25568;37.410;-122.096;2022-07-04T11:59:51;21.30;68.30
33508;DHT22;25568;37.410;-122.096;2022-07-04T12:02:20;21.30;68.30
33508;DHT22;25568;37.410;-122.096;2022-07-04T12:04:49;21.30;68.20
33508;DHT22;25568;37.410;-122.096;2022-07-04T12:07:18;21.30;68.30
33508;DHT22;25568;37.410;-122.096;2022-07-04T12:09:47;21.30;68.30
33508;DHT22;25568;37.410;-122.096;2022-07-04T12:12:15;21.20;68.20
33508;DHT22;25568;37.410;-122.096;2022-07-04T12:14:56;21.20;68.20
33508;DHT22;25568;37.410;-122.096;2022-07-04T12:17:29;21.20;68.20
33508;DHT22;25568;37.410;-122.096;2022-07-04T12:19:59;21.20;68.20
33508;DHT22;25568;37.410;-122.096;2022-07-04T12:22:29;21.20;68.40
33508;DHT22;25568;37.410;-122.096;2022-07-04T12:24:58;21.20;68.20
33508;DHT22;25568;37.410;-122.096;2022-07-04T12:27:26;21.20;68.20
33508;DHT22;25568;37.410;-122.096;2022-07-04T12:29:56;21.20;68.20
33508;DHT22;25568;37.410;-122.096;2022-07-04T12:35:09;21.20;68.20
33508;DHT22;25568;37.410;-122.096;2022-07-04T12:40:24;21.20;68.30
33508;DHT22;25568;37.410;-122.096;2022-07-04T12:42:54;21.20;68.20
33508;DHT22;25568;37.410;-122.096;2022-07-04T12:45:22;21.20;68.20
33508;DHT22;25568;37.410;-122.096;2022-07-04T12:47:50;21.10;68.20
33508;DHT22;25568;37.410;-122.096;2022-07-04T12:50:31;21.10;68.20
33508;DHT22;25568;37.410;-122.096;2022-07-04T12:52:59;21.20;68.40
33508;DHT22;25568;37.410;-122.096;2022-07-04T12:55:27;21.10;68.20
33508;DHT22;25568;37.410;-122.096;2022-07-04T12:57:55;21.10;68.20
33508;DHT22;25568;37.410;-122.096;2022-07-04T13:00:24;21.10;68.20
33508;DHT22;25568;37.410;-122.096;2022-07-04T13:02:52;21.10;68.20
33508;DHT22;25568;37.410;-122.096;2022-07-04T13:05:21;21.10;68.20
33508;DHT22;25568;37.410;-122.096;2022-07-04T13:07:50;21.10;68.20
33508;DHT22;25568;37.410;-122.096;2022-07-04T13:10:19;21.10;68.20
33508;DHT22;25568;37.410;-122.096;2022-07-04T13:12:47;21.10;68.20
33508;DHT22;25568;37.410;-122.096;2022-07-04T13:15:15;21.10;68.20
33508;DHT22;25568;37.410;-122.096;2022-07-04T13:17:43;21.10;68.20
33508;DHT22;25568;37.410;-122.096;2022-07-04T13:20:12;21.10;68.20
33508;DHT22;25568;37.410;-122.096;2022-07-04T13:22:40;21.10;68.20
33508;DHT22;25568;37.410;-122.096;2022-07-04T13:25:09;21.00;68.20
33508;DHT22;25568;37.410;-122.096;2022-07-04T13:27:38;21.10;68.20
33508;DHT22;25568;37.410;-122.096;2022-07-04T13:30:06;21.00;68.20
33508;DHT22;25568;37.410;-122.096;2022-07-04T13:32:35;21.00;68.20
33508;DHT22;25568;37.410;-122.096;2022-07-04T13:35:03;21.00;68.20
33508;DHT22;25568;37.410;-122.096;2022-07-04T13:37:31;21.00;68.20
33508;DHT22;25568;37.410;-122.096;2022-07-04T13:40:00;21.00;68.20
33508;DHT22;25568;37.410;-122.096;2022-07-04T13:42:30;21.00;68.20
33508;DHT22;25568;37.410;-122.096;2022-07-04T13:45:15;21.00;68.20
33508;DHT22;25568;37.410;-122.096;2022-07-04T13:47:44;21.00;68.20
33508;DHT22;25568;37.410;-122.096;2022-07-04T13:50:12;21.00;68.20
33508;DHT22;25568;37.410;-122.096;2022-07-04T13:52:40;21.00;68.20
33508;DHT22;25568;37.410;-122.096;2022-07-04T13:55:09;21.00;68.20
33508;DHT22;25568;37.410;-122.096;2022-07-04T13:57:38;21.00;67.60
33508;DHT22;25568;37.410;-122.096;2022-07-04T14:00:07;21.00;68.20
33508;DHT22;25568;37.410;-122.096;2022-07-04T14:02:35;21.00;68.30
33508;DHT22;25568;37.410;-122.096;2022-07-04T14:05:04;21.00;68.20
33508;DHT22;25568;37.410;-122.096;2022-07-04T14:07:32;20.90;68.10
33508;DHT22;25568;37.410;-122.096;2022-07-04T14:10:00;20.90;68.20
33508;DHT22;25568;37.410;-122.096;2022-07-04T14:12:29;21.00;68.20
33508;DHT22;25568;37.410;-122.096;2022-07-04T14:14:59;20.90;68.20
33508;DHT22;25568;37.410;-122.096;2022-07-04T14:17:28;20.90;68.20
33508;DHT22;25568;37.410;-122.096;2022-07-04T14:19:56;20.90;68.20
33508;DHT22;25568;37.410;-122.096;2022-07-04T14:22:24;20.90;68.30
33508;DHT22;25568;37.410;-122.096;2022-07-04T14:24:52;20.90;68.20
33508;DHT22;25568;37.410;-122.096;2022-07-04T14:27:20;20.90;68.20
33508;DHT22;25568;37.410;-122.096;2022-07-04T14:29:48;20.90;68.20
33508;DHT22;25568;37.410;-122.096;2022-07-04T14:32:18;20.90;68.20
33508;DHT22;25568;37.410;-122.096;2022-07-04T14:34:46;20.90;68.20
33508;DHT22;25568;37.410;-122.096;2022-07-04T14:37:14;20.90;68.20
33508;DHT22;25568;37.410;-122.096;2022-07-04T14:39:45;20.90;68.20
33508;DHT22;25568;37.410;-122.096;2022-07-04T14:42:14;20.90;68.20
33508;DHT22;25568;37.410;-122.096;2022-07-04T14:44:42;20.90;68.20
33508;DHT22;25568;37.410;-122.096;2022-07-04T14:47:10;20.90;68.20
33508;DHT22;25568;37.410;-122.096;2022-07-04T14:49:40;20.90;68.20
33508;DHT22;25568;37.410;-122.096;2022-07-04T14:52:08;20.90;68.20
33508;DHT22;25568;37.410;-122.096;2022-07-04T14:54:37;20.90;68.20
33508;DHT22;25568;37.410;-122.096;2022-07-04T14:57:05;20.90;68.20
33508;DHT22;25568;37.410;-122.096;2022-07-04T14:59:34;20.90;68.20
33508;DHT22;25568;37.410;-122.096;2022-07-04T15:02:03;20.90;68.20
33508;DHT22;25568;37.410;-122.096;2022-07-04T15:04:31;20.90;68.20
33508;DHT22;25568;37.410;-122.096;2022-07-04T15:07:01;20.90;68.20
33508;DHT22;25568;37.410;-122.096;2022-07-04T15:09:29;20.90;68.20
33508;DHT22;25568;37.410;-122.096;2022-07-04T15:11:58;20.90;68.20
33508;DHT22;25568;37.410;-122.096;2022-07-04T15:14:26;20.90;68.20
33508;DHT22;25568;37.410;-122.096;2022-07-04T15:16:54;20.90;68.20
33508;DHT22;25568;37.410;-122.096;2022-07-04T15:19:22;20.90;68.20
33508;DHT22;25568;37.410;-122.096;2022-07-04T15:21:50;20.90;68.20
33508;DHT22;25568;37.410;-122.096;2022-07-04T15:24:37;20.90;68.20
33508;DHT22;25568;37.410;-122.096;2022-07-04T15:27:05;20.90;68.20
33508;DHT22;25568;37.410;-122.096;2022-07-04T15:29:33;20.90;68.20
33508;DHT22;25568;37.410;-122.096;2022-07-04T15:32:01;20.90;68.20
33508;DHT22;25568;37.410;-122.096;2022-07-04T15:34:32;20.90;68.20
33508;DHT22;25568;37.410;-122.096;2022-07-04T15:37:03;20.90;68.20
33508;DHT22;25568;37.410;-122.096;2022-07-04T15:39:31;20.90;68.20
33508;DHT22;25568;37.410;-122.096;2022-07-04T15:42:01;20.90;68.20
33508;DHT22;25568;37.410;-122.096;2022-07-04T15:44:30;20.80;68.10
33508;DHT22;25568;37.410;-122.096;2022-07-04T15:47:01;20.90;68.20
33508;DHT22;25568;37.410;-122.096;2022-07-04T15:49:38;20.90;68.20
33508;DHT22;25568;37.410;-122.096;2022-07-04T15:52:06;20.90;68.10
33508;DHT22;25568;37.410;-122.096;2022-07-04T15:54:34;20.90;68.20
33508;DHT22;25568;37.410;-122.096;2022-07-04T15:57:04;20.80;68.10
33508;DHT22;25568;37.410;-122.096;2022-07-04T15:59:32;20.90;68.20
33508;DHT22;25568;37.410;-122.096;2022-07-04T16:02:00;20.90;68.10
33508;DHT22;25568;37.410;-122.096;2022-07-04T16:04:28;20.90;68.10
33508;DHT22;25568;37.410;-122.096;2022-07-04T16:06:56;20.90;68.10
33508;DHT22;25568;37.410;-122.096;2022-07-04T16:09:25;20.90;68.10
33508;DHT22;25568;37.410;-122.096;2022-07-04T16:11:53;20.90;68.10
33508;DHT22;25568;37.410;-122.096;2022-07-04T16:14:23;20.90;68.10
33508;DHT22;25568;37.410;-122.096;2022-07-04T16:16:51;20.90;68.10
33508;DHT22;25568;37.410;-122.096;2022-07-04T16:19:20;20.90;68.10
33508;DHT22;25568;37.410;-122.096;2022-07-04T16:21:48;20.90;68.10
33508;DHT22;25568;37.410;-122.096;2022-07-04T16:24:16;20.90;68.10
33508;DHT22;25568;37.410;-122.096;2022-07-04T16:26:45;20.90;68.10
33508;DHT22;25568;37.410;-122.096;2022-07-04T16:29:13;20.90;68.10
33508;DHT22;25568;37.410;-122.096;2022-07-04T16:31:42;20.90;68.10
33508;DHT22;25568;37.410;-122.096;2022-07-04T16:34:11;20.90;68.10
33508;DHT22;25568;37.410;-122.096;2022-07-04T16:36:39;20.90;68.10
33508;DHT22;25568;37.410;-122.096;2022-07-04T16:39:07;20.90;68.10
33508;DHT22;25568;37.410;-122.096;2022-07-04T16:41:35;20.90;68.10
33508;DHT22;25568;37.410;-122.096;2022-07-04T16:44:04;20.90;68.10
33508;DHT22;25568;37.410;-122.096;2022-07-04T16:46:32;20.90;68.10
33508;DHT22;25568;37.410;-122.096;2022-07-04T16:49:02;20.90;68.10
33508;DHT22;25568;37.410;-122.096;2022-07-04T16:51:30;20.90;68.00
33508;DHT22;25568;37.410;-122.096;2022-07-04T16:53:59;20.90;68.10
33508;DHT22;25568;37.410;-122.096;2022-07-04T16:56:27;21.00;68.10
33508;DHT22;25568;37.410;-122.096;2022-07-04T16:58:55;20.90;68.00
33508;DHT22;25568;37.410;-122.096;2022-07-04T17:01:23;20.90;68.00
33508;DHT22;25568;37.410;-122.096;2022-07-04T17:03:52;21.00;68.90
33508;DHT22;25568;37.410;-122.096;2022-07-04T17:06:22;20.90;68.00
33508;DHT22;25568;37.410;-122.096;2022-07-04T17:08:53;21.00;68.10
33508;DHT22;25568;37.410;-122.096;2022-07-04T17:11:21;21.00;68.10
33508;DHT22;25568;37.410;-122.096;2022-07-04T17:13:50;21.00;68.10
33508;DHT22;25568;37.410;-122.096;2022-07-04T17:16:19;21.00;68.10
33508;DHT22;25568;37.410;-122.096;2022-07-04T17:18:47;21.00;68.10
33508;DHT22;25568;37.410;-122.096;2022-07-04T17:21:15;21.00;68.10
33508;DHT22;25568;37.410;-122.096;2022-07-04T17:23:45;21.00;68.10
33508;DHT22;25568;37.410;-122.096;2022-07-04T17:26:13;21.00;68.00
33508;DHT22;25568;37.410;-122.096;2022-07-04T17:28:44;21.00;68.00
33508;DHT22;25568;37.410;-122.096;2022-07-04T17:31:12;21.00;68.00
33508;DHT22;25568;37.410;-122.096;2022-07-04T17:33:40;21.00;68.00
33508;DHT22;25568;37.410;-122.096;2022-07-04T17:36:08;21.00;68.00
33508;DHT22;25568;37.410;-122.096;2022-07-04T17:38:36;21.00;68.00
33508;DHT22;25568;37.410;-122.096;2022-07-04T17:41:08;21.00;67.90
33508;DHT22;25568;37.410;-122.096;2022-07-04T17:43:53;21.00;67.90
33508;DHT22;25568;37.410;-122.096;2022-07-04T17:46:22;21.00;67.90
33508;DHT22;25568;37.410;-122.096;2022-07-04T17:48:50;21.10;68.00
33508;DHT22;25568;37.410;-122.096;2022-07-04T17:51:19;21.10;68.00
33508;DHT22;25568;37.410;-122.096;2022-07-04T17:53:47;21.00;68.00
33508;DHT22;25568;37.410;-122.096;2022-07-04T17:56:17;21.10;68.00
33508;DHT22;25568;37.410;-122.096;2022-07-04T17:58:45;21.10;68.00
33508;DHT22;25568;37.410;-122.096;2022-07-04T18:01:13;21.10;67.90
33508;DHT22;25568;37.410;-122.096;2022-07-04T18:03:41;21.10;67.90
33508;DHT22;25568;37.410;-122.096;2022-07-04T18:06:10;21.10;67.90
33508;DHT22;25568;37.410;-122.096;2022-07-04T18:08:38;21.10;67.90
33508;DHT22;25568;37.410;-122.096;2022-07-04T18:11:06;21.10;67.90
33508;DHT22;25568;37.410;-122.096;2022-07-04T18:13:36;21.10;67.90
33508;DHT22;25568;37.410;-122.096;2022-07-04T18:16:05;21.10;67.90
33508;DHT22;25568;37.410;-122.096;2022-07-04T18:18:33;21.10;67.90
33508;DHT22;25568;37.410;-122.096;2022-07-04T18:21:02;21.10;67.90
33508;DHT22;25568;37.410;-122.096;2022-07-04T18:23:30;21.10;67.90
33508;DHT22;25568;37.410;-122.096;2022-07-04T18:25:58;21.10;67.90
33508;DHT22;25568;37.410;-122.096;2022-07-04T18:28:26;21.10;67.90
33508;DHT22;25568;37.410;-122.096;2022-07-04T18:31:03;21.10;67.90
33508;DHT22;25568;37.410;-122.096;2022-07-04T18:33:31;21.20;67.90
33508;DHT22;25568;37.410;-122.096;2022-07-04T18:36:00;21.20;67.90
33508;DHT22;25568;37.410;-122.096;2022-07-04T18:38:28;21.20;67.90
33508;DHT22;25568;37.410;-122.096;2022-07-04T18:40:56;21.20;67.90
33508;DHT22;25568;37.410;-122.096;2022-07-04T18:43:41;21.20;67.90
33508;DHT22;25568;37.410;-122.096;2022-07-04T18:46:11;21.20;67.90
33508;DHT22;25568;37.410;-122.096;2022-07-04T18:48:39;21.20;67.90
33508;DHT22;25568;37.410;-122.096;2022-07-04T18:51:08;21.20;67.90
33508;DHT22;25568;37.410;-122.096;2022-07-04T18:53:36;21.30;68.00
33508;DHT22;25568;37.410;-122.096;2022-07-04T18:56:04;21.30;68.00
33508;DHT22;25568;37.410;-122.096;2022-07-04T18:58:32;21.20;67.90
33508;DHT22;25568;37.410;-122.096;2022-07-04T19:01:02;21.30;68.00
33508;DHT22;25568;37.410;-122.096;2022-07-04T19:03:32;21.30;68.00
33508;DHT22;25568;37.410;-122.096;2022-07-04T19:06:00;21.30;68.00
33508;DHT22;25568;37.410;-122.096;2022-07-04T19:08:30;21.30;68.00
33508;DHT22;25568;37.410;-122.096;2022-07-04T19:10:59;21.30;68.00
33508;DHT22;25568;37.410;-122.096;2022-07-04T19:13:27;21.30;68.00
33508;DHT22;25568;37.410;-122.096;2022-07-04T19:15:55;21.30;68.00
33508;DHT22;25568;37.410;-122.096;2022-07-04T19:18:23;21.30;68.00
33508;DHT22;25568;37.410;-122.096;2022-07-04T19:20:53;21.30;67.90
33508;DHT22;25568;37.410;-122.096;2022-07-04T19:23:21;21.40;68.10
33508;DHT22;25568;37.410;-122.096;2022-07-04T19:25:49;21.40;68.00
33508;DHT22;25568;37.410;-122.096;2022-07-04T19:28:21;21.40;68.10
33508;DHT22;25568;37.410;-122.096;2022-07-04T19:30:50;21.40;68.00
33508;DHT22;25568;37.410;-122.096;2022-07-04T19:33:18;21.40;68.00
33508;DHT22;25568;37.410;-122.096;2022-07-04T19:35:50;21.40;68.00
33508;DHT22;25568;37.410;-122.096;2022-07-04T19:38:20;21.40;68.00
33508;DHT22;25568;37.410;-122.096;2022-07-04T19:40:48;21.40;68.00
33508;DHT22;25568;37.410;-122.096;2022-07-04T19:43:17;21.40;68.00
33508;DHT22;25568;37.410;-122.096;2022-07-04T19:45:45;21.50;68.10
33508;DHT22;25568;37.410;-122.096;2022-07-04T19:48:13;21.50;68.10
33508;DHT22;25568;37.410;-122.096;2022-07-04T19:50:42;21.50;68.00
33508;DHT22;25568;37.410;-122.096;2022-07-04T19:53:14;21.50;68.00
33508;DHT22;25568;37.410;-122.096;2022-07-04T19:55:44;21.50;68.00
33508;DHT22;25568;37.410;-122.096;2022-07-04T19:58:13;21.50;67.90
33508;DHT22;25568;37.410;-122.096;2022-07-04T20:00:41;21.50;67.90
33508;DHT22;25568;37.410;-122.096;2022-07-04T20:03:09;21.50;67.90
33508;DHT22;25568;37.410;-122.096;2022-07-04T20:05:38;21.50;67.90
33508;DHT22;25568;37.410;-122.096;2022-07-04T20:08:06;21.60;68.00
33508;DHT22;25568;37.410;-122.096;2022-07-04T20:10:34;21.60;67.90
33508;DHT22;25568;37.410;-122.096;2022-07-04T20:13:03;21.60;68.10
33508;DHT22;25568;37.410;-122.096;2022-07-04T20:15:32;21.60;68.10
33508;DHT22;25568;37.410;-122.096;2022-07-04T20:18:00;21.60;67.90
33508;DHT22;25568;37.410;-122.096;2022-07-04T20:20:29;21.60;67.90
33508;DHT22;25568;37.410;-122.096;2022-07-04T20:22:57;21.60;67.90
33508;DHT22;25568;37.410;-122.096;2022-07-04T20:25:27;21.60;67.90
33508;DHT22;25568;37.410;-122.096;2022-07-04T20:27:55;21.70;68.00
33508;DHT22;25568;37.410;-122.096;2022-07-04T20:30:25;21.70;68.00
33508;DHT22;25568;37.410;-122.096;2022-07-04T20:32:53;21.70;68.00
33508;DHT22;25568;37.410;-122.096;2022-07-04T20:35:21;21.70;67.90
33508;DHT22;25568;37.410;-122.096;2022-07-04T20:37:50;21.70;67.90
33508;DHT22;25568;37.410;-122.096;2022-07-04T20:40:18;21.70;67.90